createdAt,value
2018-11-26T00:01:23.519Z,6.70
2018-11-26T00:03:51.475Z,6.70
2018-11-26T00:06:19.450Z,6.70
2018-11-26T00:08:47.414Z,6.60
2018-11-26T00:11:49.318Z,6.60
2018-11-26T00:14:17.339Z,6.60
2018-11-26T00:16:45.267Z,6.60
2018-11-26T00:19:13.214Z,6.50
2018-11-26T00:21:41.161Z,6.50
2018-11-26T00:24:09.148Z,6.50
2018-11-26T00:26:37.104Z,6.40
2018-11-26T00:29:05.052Z,6.40
2018-11-26T00:31:32.968Z,6.40
2018-11-26T00:34:00.928Z,6.40
2018-11-26T00:36:28.913Z,6.40
2018-11-26T00:38:56.831Z,6.40
2018-11-26T00:41:24.872Z,6.40
2018-11-26T00:43:52.827Z,6.30
2018-11-26T00:46:20.842Z,6.30
2018-11-26T00:48:48.718Z,6.30
2018-11-26T00:51:16.733Z,6.30
2018-11-26T00:53:44.664Z,6.20
2018-11-26T00:56:12.621Z,6.20
2018-11-26T00:58:40.671Z,6.20
2018-11-26T01:01:08.618Z,6.20
2018-11-26T01:03:36.551Z,6.20
2018-11-26T01:06:04.923Z,6.10
2018-11-26T01:08:33.376Z,6.10
2018-11-26T01:11:01.325Z,6.00
2018-11-26T01:13:29.280Z,6.00
2018-11-26T01:15:57.223Z,6.00
2018-11-26T01:18:25.169Z,6.00
2018-11-26T01:20:53.119Z,6.00
2018-11-26T01:23:21.060Z,6.00
2018-11-26T01:25:49.007Z,5.90
2018-11-26T01:28:16.960Z,5.90
2018-11-26T01:30:44.931Z,5.90
2018-11-26T01:33:12.897Z,5.80
2018-11-26T01:35:40.849Z,5.80
2018-11-26T01:38:08.772Z,5.80
2018-11-26T01:40:42.193Z,5.70
2018-11-26T01:43:10.163Z,5.70
2018-11-26T01:45:38.139Z,5.70
2018-11-26T01:48:06.076Z,5.70
2018-11-26T01:50:34.035Z,5.70
2018-11-26T01:53:01.993Z,5.70
2018-11-26T01:55:29.933Z,5.70
2018-11-26T01:57:57.939Z,5.70
2018-11-26T02:00:26.813Z,5.70
2018-11-26T02:02:54.885Z,5.70
2018-11-26T02:05:22.902Z,5.70
2018-11-26T02:07:50.840Z,5.70
2018-11-26T02:10:19.509Z,5.70
2018-11-26T02:12:47.520Z,5.70
2018-11-26T02:15:25.465Z,5.70
2018-11-26T02:17:57.184Z,5.70
2018-11-26T02:20:25.116Z,5.70
2018-11-26T02:22:53.052Z,5.70
2018-11-26T02:25:21.017Z,5.70
2018-11-26T02:27:48.964Z,5.70
2018-11-26T02:30:16.928Z,5.80
2018-11-26T02:32:48.680Z,5.80
2018-11-26T02:35:16.603Z,5.80
2018-11-26T02:37:48.399Z,5.80
2018-11-26T02:40:21.356Z,5.80
2018-11-26T02:42:49.420Z,5.80
2018-11-26T02:45:17.343Z,5.80
2018-11-26T02:47:45.278Z,5.90
2018-11-26T02:50:13.231Z,5.80
2018-11-26T02:52:41.159Z,5.80
2018-11-26T02:55:09.168Z,5.80
2018-11-26T02:57:37.120Z,5.80
2018-11-26T03:00:07.256Z,5.80
2018-11-26T03:02:35.187Z,5.70
2018-11-26T03:05:03.141Z,5.70
2018-11-26T03:07:31.131Z,5.60
2018-11-26T03:09:59.141Z,5.60
2018-11-26T03:12:27.057Z,5.60
2018-11-26T03:14:55.053Z,5.60
2018-11-26T03:17:23.037Z,5.50
2018-11-26T03:19:50.968Z,5.50
2018-11-26T03:22:19.007Z,5.50
2018-11-26T03:24:46.980Z,5.50
2018-11-26T03:27:14.917Z,5.60
2018-11-26T03:29:42.871Z,5.70
2018-11-26T03:32:10.805Z,5.70
2018-11-26T03:34:38.739Z,5.70
2018-11-26T03:37:07.071Z,5.70
2018-11-26T03:39:35.036Z,5.70
2018-11-26T03:42:02.979Z,5.80
2018-11-26T03:44:30.975Z,5.80
2018-11-26T03:46:58.969Z,5.80
2018-11-26T03:49:27.188Z,5.70
2018-11-26T03:51:55.117Z,5.70
2018-11-26T03:54:23.076Z,5.70
2018-11-26T03:56:51.033Z,5.70
2018-11-26T03:59:18.997Z,5.70
2018-11-26T04:01:46.947Z,5.70
2018-11-26T04:04:14.911Z,5.70
2018-11-26T04:06:42.850Z,5.70
2018-11-26T04:09:10.817Z,5.60
2018-11-26T04:11:39.048Z,5.70
2018-11-26T04:14:07.021Z,5.70
2018-11-26T04:16:35.013Z,5.70
2018-11-26T04:19:02.954Z,5.70
2018-11-26T04:21:30.903Z,5.70
2018-11-26T04:23:58.859Z,5.70
2018-11-26T04:26:26.944Z,5.70
2018-11-26T04:28:54.907Z,5.70
2018-11-26T04:31:22.914Z,5.70
2018-11-26T04:33:50.864Z,5.70
2018-11-26T04:36:18.828Z,5.70
2018-11-26T04:41:21.196Z,5.70
2018-11-26T04:43:49.178Z,5.70
2018-11-26T04:46:17.160Z,5.70
2018-11-26T04:48:45.087Z,5.60
2018-11-26T04:51:13.048Z,5.60
2018-11-26T04:53:40.985Z,5.70
2018-11-26T04:56:08.980Z,5.60
2018-11-26T04:58:36.985Z,5.70
2018-11-26T05:01:05.228Z,5.70
2018-11-26T05:03:33.151Z,5.70
2018-11-26T05:06:01.118Z,5.70
2018-11-26T05:08:29.083Z,5.70
2018-11-26T05:10:57.012Z,5.70
2018-11-26T05:13:25.208Z,5.80
2018-11-26T05:15:53.254Z,5.80
2018-11-26T05:18:21.176Z,5.70
2018-11-26T05:20:52.694Z,5.70
2018-11-26T05:23:20.676Z,5.70
2018-11-26T05:25:48.639Z,5.70
2018-11-26T05:28:16.563Z,5.70
2018-11-26T05:30:44.536Z,5.70
2018-11-26T05:33:12.484Z,5.70
2018-11-26T05:35:40.404Z,5.70
2018-11-26T05:38:08.382Z,5.70
2018-11-26T05:40:36.917Z,5.80
2018-11-26T05:43:05.197Z,5.80
2018-11-26T05:45:33.141Z,5.80
2018-11-26T05:48:01.134Z,5.80
2018-11-26T05:50:32.365Z,5.80
2018-11-26T05:53:00.293Z,5.80
2018-11-26T05:55:28.224Z,5.80
2018-11-26T05:57:56.238Z,5.80
2018-11-26T06:00:33.060Z,5.80
2018-11-26T06:03:00.982Z,5.80
2018-11-26T06:05:28.912Z,5.80
2018-11-26T06:10:31.557Z,5.80
2018-11-26T06:12:59.593Z,5.80
2018-11-26T06:15:27.536Z,5.70
2018-11-26T06:17:55.511Z,5.80
2018-11-26T06:20:23.475Z,5.80
2018-11-26T06:22:51.495Z,5.70
2018-11-26T06:25:20.442Z,5.70
2018-11-26T06:27:48.513Z,5.80
2018-11-26T06:30:17.572Z,5.70
2018-11-26T06:35:21.321Z,5.90
2018-11-26T06:37:49.302Z,5.90
2018-11-26T06:40:17.373Z,5.90
2018-11-26T06:42:45.479Z,6.00
2018-11-26T06:45:16.659Z,5.90
2018-11-26T06:47:44.643Z,5.90
2018-11-26T06:50:14.587Z,5.90
2018-11-26T06:52:42.549Z,5.80
2018-11-26T06:55:11.912Z,5.80
2018-11-26T06:57:39.955Z,5.90
2018-11-26T07:00:11.661Z,5.90
2018-11-26T07:02:39.823Z,5.90
2018-11-26T07:05:10.784Z,5.90
2018-11-26T07:07:38.847Z,5.90
2018-11-26T07:10:08.045Z,5.90
2018-11-26T07:12:36.119Z,5.90
2018-11-26T07:15:05.320Z,5.90
2018-11-26T07:17:33.278Z,5.80
2018-11-26T07:20:01.347Z,5.80
2018-11-26T07:22:29.537Z,5.80
2018-11-26T07:24:57.469Z,5.80
2018-11-26T07:27:25.515Z,5.80
2018-11-26T07:29:53.572Z,5.80
2018-11-26T07:32:21.559Z,5.90
2018-11-26T07:34:49.576Z,5.90
2018-11-26T07:37:20.876Z,5.90
2018-11-26T07:39:48.857Z,6.00
2018-11-26T07:42:17.071Z,5.90
2018-11-26T07:44:45.024Z,6.00
2018-11-26T07:47:13.003Z,5.90
2018-11-26T07:49:40.942Z,6.00
2018-11-26T07:52:08.882Z,6.00
2018-11-26T07:54:36.870Z,6.00
2018-11-26T07:57:05.090Z,6.00
2018-11-26T07:59:33.088Z,6.00
2018-11-26T08:02:01.059Z,6.00
2018-11-26T08:04:29.068Z,6.00
2018-11-26T08:06:57.118Z,6.10
2018-11-26T08:09:25.083Z,6.10
2018-11-26T08:11:53.040Z,6.10
2018-11-26T08:14:20.969Z,6.10
2018-11-26T08:16:48.913Z,6.10
2018-11-26T08:19:16.871Z,6.10
2018-11-26T08:21:44.809Z,6.00
2018-11-26T08:24:12.740Z,6.00
2018-11-26T08:26:40.701Z,6.10
2018-11-26T08:29:08.663Z,6.10
2018-11-26T08:31:36.604Z,6.10
2018-11-26T08:34:04.889Z,6.10
2018-11-26T08:36:33.763Z,6.10
2018-11-26T08:39:07.356Z,6.00
2018-11-26T08:41:36.737Z,6.00
2018-11-26T08:44:10.309Z,6.10
2018-11-26T08:46:43.941Z,6.10
2018-11-26T08:49:14.273Z,6.00
2018-11-26T08:51:42.200Z,6.10
2018-11-26T08:56:43.403Z,6.10
2018-11-26T08:59:11.369Z,6.20
2018-11-26T09:01:42.438Z,6.20
2018-11-26T09:04:10.691Z,6.20
2018-11-26T09:06:38.706Z,6.20
2018-11-26T09:09:12.891Z,6.20
2018-11-26T09:11:40.820Z,6.20
2018-11-26T09:14:08.808Z,6.30
2018-11-26T09:16:36.768Z,6.30
2018-11-26T09:19:08.547Z,6.40
2018-11-26T09:21:36.487Z,6.40
2018-11-26T09:24:04.553Z,6.40
2018-11-26T09:26:32.538Z,6.40
2018-11-26T09:29:00.477Z,6.50
2018-11-26T09:31:28.431Z,6.40
2018-11-26T09:33:56.408Z,6.40
2018-11-26T09:36:24.352Z,6.40
2018-11-26T09:38:52.364Z,6.50
2018-11-26T09:41:20.335Z,6.40
2018-11-26T09:43:48.297Z,6.40
2018-11-26T09:46:16.285Z,6.40
2018-11-26T09:48:44.214Z,6.50
2018-11-26T09:51:14.375Z,6.50
2018-11-26T09:53:40.197Z,6.50
2018-11-26T09:56:08.153Z,6.60
2018-11-26T09:58:36.084Z,6.50
2018-11-26T10:01:04.349Z,6.50
2018-11-26T10:03:32.283Z,6.50
2018-11-26T10:06:00.219Z,6.50
2018-11-26T10:08:28.177Z,6.50
2018-11-26T10:10:56.096Z,6.50
2018-11-26T10:13:24.156Z,6.50
2018-11-26T10:15:52.139Z,6.50
2018-11-26T10:18:20.099Z,6.60
2018-11-26T10:20:48.043Z,6.60
2018-11-26T10:23:16.003Z,6.70
2018-11-26T10:25:43.935Z,6.70
2018-11-26T10:28:11.990Z,6.80
2018-11-26T10:30:39.957Z,6.80
2018-11-26T10:33:14.451Z,6.80
2018-11-26T10:35:35.939Z,6.80
2018-11-26T10:38:03.961Z,6.80
2018-11-26T10:40:31.895Z,6.90
2018-11-26T10:42:59.874Z,6.90
2018-11-26T10:45:27.846Z,6.90
2018-11-26T10:47:55.790Z,7.00
2018-11-26T10:50:25.248Z,7.00
2018-11-26T10:52:57.371Z,7.00
2018-11-26T10:55:27.134Z,7.00
2018-11-26T10:57:55.070Z,7.00
2018-11-26T11:00:28.591Z,7.00
2018-11-26T11:02:56.515Z,7.00
2018-11-26T11:05:24.466Z,7.00
2018-11-26T11:07:52.431Z,7.10
2018-11-26T11:10:23.371Z,7.10
2018-11-26T11:12:51.335Z,7.10
2018-11-26T11:15:19.312Z,7.20
2018-11-26T11:17:47.283Z,7.20
2018-11-26T11:20:17.054Z,7.20
2018-11-26T11:22:45.108Z,7.20
2018-11-26T11:25:14.064Z,7.20
2018-11-26T11:27:42.144Z,7.20
2018-11-26T11:30:15.210Z,7.20
2018-11-26T11:32:43.521Z,7.10
2018-11-26T11:35:12.365Z,7.10
2018-11-26T11:37:40.846Z,7.20
2018-11-26T11:40:11.410Z,7.20
2018-11-26T11:42:39.459Z,7.20
2018-11-26T11:45:09.066Z,7.10
2018-11-26T11:47:37.018Z,7.10
2018-11-26T11:50:07.395Z,7.10
2018-11-26T11:52:35.318Z,7.10
2018-11-26T11:55:03.420Z,7.10
2018-11-26T11:57:31.400Z,7.10
2018-11-26T12:00:00.261Z,7.10
2018-11-26T12:02:28.248Z,7.20
2018-11-26T12:04:56.319Z,7.10
2018-11-26T12:07:24.309Z,7.20
2018-11-26T12:09:52.283Z,7.20
2018-11-26T12:12:20.285Z,7.10
2018-11-26T12:14:48.253Z,7.10
2018-11-26T12:17:16.220Z,7.20
2018-11-26T12:19:44.185Z,7.10
2018-11-26T12:22:12.111Z,7.10
2018-11-26T12:24:40.216Z,7.10
2018-11-26T12:27:08.190Z,7.10
2018-11-26T12:29:36.141Z,7.10
2018-11-26T12:32:04.093Z,7.10
2018-11-26T12:34:32.301Z,7.20
2018-11-26T12:37:00.281Z,7.20
2018-11-26T12:39:28.240Z,7.10
2018-11-26T12:41:56.270Z,7.10
2018-11-26T12:44:24.856Z,7.10
2018-11-26T12:46:53.016Z,7.20
2018-11-26T12:49:21.003Z,7.20
2018-11-26T12:51:48.977Z,7.20
2018-11-26T12:54:16.933Z,7.20
2018-11-26T12:56:44.930Z,7.20
2018-11-26T12:59:12.977Z,7.30
2018-11-26T13:01:40.929Z,7.20
2018-11-26T13:04:09.025Z,7.20
2018-11-26T13:06:36.995Z,7.20
2018-11-26T13:09:07.315Z,7.20
2018-11-26T13:11:35.317Z,7.20
2018-11-26T13:14:03.271Z,7.30
2018-11-26T13:16:31.288Z,7.30
2018-11-26T13:18:59.301Z,7.20
2018-11-26T13:21:27.241Z,7.20
2018-11-26T13:23:55.229Z,7.20
2018-11-26T13:26:23.498Z,7.20
2018-11-26T13:28:51.422Z,7.20
2018-11-26T13:31:19.354Z,7.20
2018-11-26T13:33:47.320Z,7.10
2018-11-26T13:36:15.295Z,7.10
2018-11-26T13:38:43.330Z,7.10
2018-11-26T13:41:11.536Z,7.10
2018-11-26T13:43:39.643Z,7.00
2018-11-26T13:46:07.695Z,7.10
2018-11-26T13:48:35.817Z,7.10
2018-11-26T13:51:03.837Z,7.10
2018-11-26T13:53:32.004Z,7.10
2018-11-26T13:56:00.077Z,7.20
2018-11-26T13:58:28.045Z,7.20
2018-11-26T14:00:56.013Z,7.10
2018-11-26T14:03:24.074Z,7.10
2018-11-26T14:05:52.001Z,7.20
2018-11-26T14:08:20.030Z,7.20
2018-11-26T14:10:48.010Z,7.20
2018-11-26T14:13:16.515Z,7.20
2018-11-26T14:15:44.525Z,7.20
2018-11-26T14:18:12.610Z,7.20
2018-11-26T14:20:40.537Z,7.20
2018-11-26T14:23:08.567Z,7.30
2018-11-26T14:25:36.570Z,7.20
2018-11-26T14:28:04.624Z,7.20
2018-11-26T14:30:32.550Z,7.20
2018-11-26T14:33:00.612Z,7.20
2018-11-26T14:35:28.567Z,7.20
2018-11-26T14:37:57.714Z,7.20
2018-11-26T14:40:29.777Z,7.20
2018-11-26T14:42:57.730Z,7.20
2018-11-26T14:45:25.660Z,7.20
2018-11-26T14:47:53.674Z,7.20
2018-11-26T14:50:21.633Z,7.10
2018-11-26T14:52:50.167Z,7.10
2018-11-26T14:55:28.609Z,7.10
2018-11-26T14:57:56.674Z,7.10
2018-11-26T15:00:24.626Z,7.10
2018-11-26T15:02:52.877Z,7.10
2018-11-26T15:05:20.877Z,7.10
2018-11-26T15:07:48.798Z,7.10
2018-11-26T15:10:19.078Z,7.10
2018-11-26T15:12:47.151Z,7.10
2018-11-26T15:15:19.370Z,7.10
2018-11-26T15:17:47.430Z,7.10
2018-11-26T15:20:21.748Z,7.10
2018-11-26T15:22:50.417Z,7.10
2018-11-26T15:25:20.556Z,7.10
2018-11-26T15:27:48.624Z,7.10
2018-11-26T15:30:18.847Z,7.10
2018-11-26T15:32:46.941Z,7.10
2018-11-26T15:35:16.127Z,7.10
2018-11-26T15:37:44.288Z,7.10
2018-11-26T15:40:13.623Z,7.00
2018-11-26T15:42:41.615Z,7.00
2018-11-26T15:45:12.741Z,7.00
2018-11-26T15:47:40.697Z,7.00
2018-11-26T15:50:09.301Z,7.00
2018-11-26T15:52:37.278Z,7.00
2018-11-26T15:55:06.972Z,7.00
2018-11-26T15:57:34.937Z,7.00
2018-11-26T16:00:02.886Z,7.00
2018-11-26T16:05:04.683Z,7.00
2018-11-26T16:07:32.764Z,7.00
2018-11-26T16:10:01.028Z,7.00
2018-11-26T16:12:28.963Z,6.90
2018-11-26T16:14:56.902Z,7.00
2018-11-26T16:17:24.968Z,7.00
2018-11-26T16:19:53.079Z,6.90
2018-11-26T16:22:21.084Z,6.90
2018-11-26T16:24:49.162Z,6.80
2018-11-26T16:27:17.142Z,6.80
2018-11-26T16:29:45.207Z,6.80
2018-11-26T16:32:13.495Z,6.80
2018-11-26T16:34:42.569Z,6.80
2018-11-26T16:37:10.541Z,6.80
2018-11-26T16:39:38.818Z,6.80
2018-11-26T16:42:06.754Z,6.80
2018-11-26T16:44:34.704Z,6.70
2018-11-26T16:47:06.570Z,6.60
2018-11-26T16:49:34.545Z,6.60
2018-11-26T16:52:02.466Z,6.60
2018-11-26T16:54:30.445Z,6.50
2018-11-26T16:56:58.437Z,6.60
2018-11-26T16:59:26.465Z,6.60
2018-11-26T17:01:54.606Z,6.60
2018-11-26T17:04:22.715Z,6.70
2018-11-26T17:06:50.762Z,6.70
2018-11-26T17:09:18.830Z,6.70
2018-11-26T17:11:46.817Z,6.70
2018-11-26T17:14:14.762Z,6.70
2018-11-26T17:16:42.869Z,6.80
2018-11-26T17:19:11.036Z,6.80
2018-11-26T17:21:38.978Z,6.80
2018-11-26T17:24:06.986Z,6.80
2018-11-26T17:26:34.925Z,6.90
2018-11-26T17:29:02.934Z,6.80
2018-11-26T17:31:30.894Z,6.80
2018-11-26T17:33:58.873Z,6.70
2018-11-26T17:36:26.939Z,6.80
2018-11-26T17:38:55.013Z,6.80
2018-11-26T17:41:22.949Z,6.80
2018-11-26T17:43:51.254Z,6.80
2018-11-26T17:46:19.203Z,6.80
2018-11-26T17:48:47.121Z,6.80
2018-11-26T17:51:15.161Z,6.80
2018-11-26T17:53:43.085Z,6.70
2018-11-26T17:56:11.101Z,6.70
2018-11-26T17:58:39.032Z,6.70
2018-11-26T18:01:11.657Z,6.80
2018-11-26T18:03:39.714Z,6.80
2018-11-26T18:06:08.482Z,6.70
2018-11-26T18:08:36.585Z,6.80
2018-11-26T18:11:04.986Z,6.80
2018-11-26T18:13:32.924Z,6.80
2018-11-26T18:16:00.928Z,6.80
2018-11-26T18:18:28.973Z,6.70
2018-11-26T18:20:56.990Z,6.70
2018-11-26T18:23:25.021Z,6.70
2018-11-26T18:25:54.077Z,6.70
2018-11-26T18:28:22.181Z,6.80
2018-11-26T18:30:51.387Z,6.70
2018-11-26T18:33:19.326Z,6.70
2018-11-26T18:35:47.909Z,6.80
2018-11-26T18:38:16.129Z,6.70
2018-11-26T18:40:45.449Z,6.70
2018-11-26T18:43:13.484Z,6.80
2018-11-26T18:45:42.188Z,6.70
2018-11-26T18:48:11.601Z,6.80
2018-11-26T18:50:39.612Z,6.80
2018-11-26T18:53:08.185Z,6.90
2018-11-26T18:55:37.239Z,6.90
2018-11-26T18:58:05.405Z,6.90
2018-11-26T19:00:35.424Z,6.90
2018-11-26T19:03:03.379Z,6.90
2018-11-26T19:05:31.312Z,6.90
2018-11-26T19:07:59.525Z,6.90
2018-11-26T19:10:31.459Z,6.90
2018-11-26T19:13:03.971Z,6.90
2018-11-26T19:15:36.062Z,6.90
2018-11-26T19:18:13.453Z,6.90
2018-11-26T19:20:41.376Z,6.90
2018-11-26T19:23:09.390Z,6.90
2018-11-26T19:25:37.489Z,6.90
2018-11-26T19:28:05.457Z,6.80
2018-11-26T19:30:33.418Z,6.70
2018-11-26T19:33:01.379Z,6.70
2018-11-26T19:35:29.320Z,6.60
2018-11-26T19:37:57.339Z,6.70
2018-11-26T19:40:25.277Z,6.70
2018-11-26T19:42:53.235Z,6.80
2018-11-26T19:45:21.460Z,6.80
2018-11-26T19:47:50.430Z,6.70
2018-11-26T19:50:19.272Z,6.70
2018-11-26T19:52:48.652Z,6.60
2018-11-26T19:55:18.894Z,6.60
2018-11-26T19:57:46.959Z,6.50
2018-11-26T20:00:16.096Z,6.50
2018-11-26T20:02:45.584Z,6.50
2018-11-26T20:05:16.794Z,6.50
2018-11-26T20:07:44.766Z,6.40
2018-11-26T20:10:12.728Z,6.40
2018-11-26T20:12:40.822Z,6.40
2018-11-26T20:15:11.774Z,6.40
2018-11-26T20:17:39.762Z,6.50
2018-11-26T20:20:08.193Z,6.50
2018-11-26T20:22:36.250Z,6.50
2018-11-26T20:25:06.562Z,6.40
2018-11-26T20:27:34.946Z,6.40
2018-11-26T20:30:02.987Z,6.30
2018-11-26T20:32:30.998Z,6.40
2018-11-26T20:34:58.993Z,6.40
2018-11-26T20:37:26.955Z,6.30
2018-11-26T20:39:54.930Z,6.20
2018-11-26T20:42:23.002Z,6.10
2018-11-26T20:44:50.947Z,6.10
2018-11-26T20:47:18.904Z,6.10
2018-11-26T20:49:46.925Z,6.10
2018-11-26T20:52:14.860Z,6.10
2018-11-26T20:54:42.793Z,6.10
2018-11-26T20:57:10.889Z,6.10
2018-11-26T20:59:39.064Z,6.10
2018-11-26T21:02:07.020Z,6.10
2018-11-26T21:04:34.984Z,6.10
2018-11-26T21:07:03.094Z,6.00
2018-11-26T21:09:31.062Z,5.90
2018-11-26T21:11:59.390Z,5.90
2018-11-26T21:14:27.425Z,5.90
2018-11-26T21:16:55.352Z,5.80
2018-11-26T21:19:23.756Z,5.70
2018-11-26T21:21:51.678Z,5.70
2018-11-26T21:24:19.742Z,5.70
2018-11-26T21:26:48.031Z,5.70
2018-11-26T21:29:16.496Z,5.70
2018-11-26T21:31:44.463Z,5.60
2018-11-26T21:34:12.420Z,5.50
2018-11-26T21:36:40.371Z,5.40
2018-11-26T21:39:10.262Z,5.40
2018-11-26T21:41:38.308Z,5.40
2018-11-26T21:44:06.416Z,5.40
2018-11-26T21:46:34.471Z,5.40
2018-11-26T21:49:02.482Z,5.40
2018-11-26T21:51:31.346Z,5.50
2018-11-26T21:53:59.296Z,5.40
2018-11-26T21:56:27.272Z,5.40
2018-11-26T21:58:55.249Z,5.40
2018-11-26T22:01:23.210Z,5.40
2018-11-26T22:03:51.201Z,5.40
2018-11-26T22:06:19.129Z,5.40
2018-11-26T22:08:47.115Z,5.30
2018-11-26T22:11:15.095Z,5.30
2018-11-26T22:13:43.102Z,5.30
2018-11-26T22:16:11.073Z,5.30
2018-11-26T22:18:39.209Z,5.20
2018-11-26T22:21:07.141Z,5.30
2018-11-26T22:23:35.110Z,5.30
2018-11-26T22:26:03.114Z,5.30
2018-11-26T22:28:31.177Z,5.20
2018-11-26T22:30:59.236Z,5.20
2018-11-26T22:33:27.195Z,5.20
2018-11-26T22:35:55.172Z,5.20
2018-11-26T22:38:23.242Z,5.20
2018-11-26T22:40:51.191Z,5.10
2018-11-26T22:43:19.117Z,5.10
2018-11-26T22:45:47.074Z,5.00
2018-11-26T22:48:15.180Z,5.00
2018-11-26T22:50:44.214Z,5.00
2018-11-26T22:53:12.188Z,5.00
2018-11-26T22:55:40.162Z,5.00
2018-11-26T22:58:09.548Z,4.90
2018-11-26T23:00:45.189Z,4.70
2018-11-26T23:03:14.706Z,4.60
2018-11-26T23:05:42.641Z,4.30
2018-11-26T23:08:10.605Z,4.10
2018-11-26T23:10:38.560Z,4.20
2018-11-26T23:13:07.402Z,4.30
2018-11-26T23:15:35.378Z,4.20
2018-11-26T23:18:03.337Z,4.20
2018-11-26T23:20:31.549Z,4.30
2018-11-26T23:23:03.204Z,4.40
2018-11-26T23:25:31.154Z,4.50
2018-11-26T23:27:59.184Z,4.40
2018-11-26T23:30:28.330Z,4.40
2018-11-26T23:32:58.221Z,4.50
2018-11-26T23:35:26.198Z,4.50
2018-11-26T23:37:54.251Z,4.40
2018-11-26T23:40:22.186Z,4.50
2018-11-26T23:42:50.145Z,4.40
2018-11-26T23:45:19.117Z,4.40
2018-11-26T23:47:47.056Z,4.30
2018-11-26T23:50:15.973Z,4.30
2018-11-26T23:52:44.149Z,4.40
2018-11-26T23:55:16.863Z,4.40
2018-11-26T23:57:44.815Z,4.40
